Time;durP1;ratioP1;P1;durP2;ratioP2;P2;SDS_P1;SDS_P2;PMS_P1;PMS_P2;Temp;Humidity;BMP_temperature;BMP_pressure;BME280_temperature;BME280_humidity;BME280_pressure;Samples;Min_cycle;Max_cycle;Signal;HPM_P1;HPM_P2
2023/06/15 00:00:14;;;;;;;1.40;1.27;;;;;;;24.15;39.44;100859.53;4544851;28;20104;-62
2023/06/15 00:02:26;;;;;;;1.30;1.20;;;;;;;24.15;39.35;100859.53;4544223;28;20037;-62
2023/06/15 00:04:36;;;;;;;1.20;1.10;;;;;;;24.14;39.52;100860.78;4543484;28;20384;-62
2023/06/15 00:06:47;;;;;;;1.25;1.15;;;;;;;24.17;39.84;100857.13;4544376;28;20040;-62
2023/06/15 00:08:58;;;;;;;1.20;1.10;;;;;;;24.13;39.59;100855.38;4542852;28;20033;-61
2023/06/15 00:11:09;;;;;;;1.17;1.10;;;;;;;24.14;39.84;100851.28;4543916;28;20140;-62
2023/06/15 00:13:19;;;;;;;1.35;1.02;;;;;;;24.12;39.82;100854.53;4542828;28;20428;-61
2023/06/15 00:15:30;;;;;;;1.48;1.20;;;;;;;24.13;39.77;100855.38;4544612;28;20036;-62
2023/06/15 00:17:41;;;;;;;0.93;0.90;;;;;;;24.14;39.68;100846.34;4544182;28;20118;-62
2023/06/15 00:19:53;;;;;;;1.30;1.20;;;;;;;24.14;39.87;100855.00;4545332;28;20976;-61
2023/06/15 00:22:04;;;;;;;1.73;1.20;;;;;;;24.14;39.81;100854.16;4544380;28;20560;-62
2023/06/15 00:24:14;;;;;;;1.20;1.10;;;;;;;24.15;39.53;100859.53;4545474;28;20041;-63
2023/06/15 00:26:26;;;;;;;1.35;1.20;;;;;;;24.14;39.52;100857.88;4545352;28;20021;-61
2023/06/15 00:28:36;;;;;;;1.08;0.98;;;;;;;24.15;39.59;100864.50;4545063;28;20091;-62
2023/06/15 00:30:47;;;;;;;1.67;1.33;;;;;;;24.14;39.73;100854.16;4544857;28;20087;-61
2023/06/15 00:32:57;;;;;;;1.40;1.30;;;;;;;24.12;39.39;100859.50;4544598;28;20112;-62
2023/06/15 00:35:08;;;;;;;1.25;1.15;;;;;;;24.13;39.62;100867.78;4543932;28;20060;-62
2023/06/15 00:37:19;;;;;;;1.15;1.05;;;;;;;24.12;39.46;100873.94;4544145;28;20127;-62
2023/06/15 00:39:30;;;;;;;1.30;1.20;;;;;;;24.09;39.15;100880.44;4544284;28;20618;-61
2023/06/15 00:41:41;;;;;;;1.92;1.20;;;;;;;24.13;39.55;100879.31;4543416;28;20040;-61
2023/06/15 00:43:52;;;;;;;1.33;1.23;;;;;;;24.13;39.55;100867.78;4542418;28;20024;-62
2023/06/15 00:46:03;;;;;;;1.00;1.00;;;;;;;24.13;39.99;100867.78;4544142;28;20032;-62
2023/06/15 00:48:14;;;;;;;1.33;1.23;;;;;;;24.13;39.46;100867.78;4543675;28;20028;-61
2023/06/15 00:50:25;;;;;;;2.28;1.30;;;;;;;24.13;39.68;100867.78;4544321;28;20607;-62
2023/06/15 00:52:36;;;;;;;1.30;1.20;;;;;;;24.11;39.34;100869.34;4543609;28;20124;-62
2023/06/15 00:54:48;;;;;;;1.40;1.30;;;;;;;24.11;39.50;100857.81;4541727;28;20105;-61
2023/06/15 00:56:58;;;;;;;1.40;1.30;;;;;;;24.11;39.78;100864.44;4541923;28;20130;-61
2023/06/15 00:59:09;;;;;;;1.45;1.27;;;;;;;24.11;39.07;100857.81;4542717;28;20086;-62
2023/06/15 01:01:19;;;;;;;1.83;1.20;;;;;;;24.10;39.24;100865.63;4543345;27;20556;-61
2023/06/15 01:03:30;;;;;;;1.30;1.20;;;;;;;24.12;39.81;100866.09;4542147;28;20061;-62
2023/06/15 01:05:44;;;;;;;1.48;1.38;;;;;;;24.13;39.63;100864.03;4552346;28;20036;-62
2023/06/15 01:07:55;;;;;;;1.38;1.27;;;;;;;24.13;39.54;100875.56;4559177;28;20040;-61
2023/06/15 01:10:09;;;;;;;1.30;1.20;;;;;;;24.01;39.75;100849.78;4550815;28;20028;-62
2023/06/15 01:12:19;;;;;;;1.30;1.20;;;;;;;24.13;39.71;100866.94;4544849;28;20044;-62
2023/06/15 01:14:30;;;;;;;1.30;1.20;;;;;;;24.11;39.80;100870.19;4541885;28;20499;-62
2023/06/15 01:16:43;;;;;;;1.42;1.30;;;;;;;24.10;39.82;100862.75;4541774;28;20041;-63
2023/06/15 01:18:57;;;;;;;1.33;1.23;;;;;;;24.11;39.80;100861.53;4542838;28;20114;-61
2023/06/15 01:21:09;;;;;;;1.30;1.20;;;;;;;24.10;39.39;100862.75;4550548;28;20043;-61
2023/06/15 01:24:08;;;;;;;1.45;1.25;;;;;;;24.11;39.49;100864.44;4541667;28;20029;-61
2023/06/15 01:26:24;;;;;;;1.75;1.20;;;;;;;24.09;39.50;100861.09;4539555;28;20037;-61
2023/06/15 01:28:40;;;;;;;1.50;1.40;;;;;;;24.10;39.58;100861.94;4541080;28;20057;-61
2023/06/15 01:30:53;;;;;;;1.30;1.20;;;;;;;24.09;39.42;100852.44;4550882;28;20043;-61
2023/06/15 01:33:04;;;;;;;1.27;1.17;;;;;;;24.08;39.53;100852.81;4542258;28;20075;-62
2023/06/15 01:35:15;;;;;;;1.30;1.20;;;;;;;24.07;39.50;100860.63;4543420;28;20598;-61
2023/06/15 01:37:26;;;;;;;1.30;1.20;;;;;;;24.08;39.26;100858.59;4540713;28;20035;-61
2023/06/15 01:39:39;;;;;;;1.67;1.20;;;;;;;24.08;39.23;100865.19;4543433;28;20079;-61
2023/06/15 01:41:50;;;;;;;1.02;1.02;;;;;;;24.09;39.13;100863.13;4550548;28;20223;-61
2023/06/15 01:44:01;;;;;;;1.30;1.20;;;;;;;24.09;39.42;100866.00;4550553;27;20050;-62
2023/06/15 01:46:12;;;;;;;1.20;1.10;;;;;;;24.07;39.42;100863.50;4543370;28;20047;-62
2023/06/15 01:48:25;;;;;;;1.30;1.20;;;;;;;24.06;39.54;100861.84;4550268;28;20106;-61
2023/06/15 01:50:37;;;;;;;1.42;1.20;;;;;;;24.08;39.15;100864.34;4544521;28;20017;-61
2023/06/15 01:52:47;;;;;;;1.23;1.13;;;;;;;24.07;39.40;100863.50;4540358;28;20170;-61
2023/06/15 01:54:58;;;;;;;1.30;1.20;;;;;;;24.03;39.06;100856.03;4540493;28;20052;-62
2023/06/15 01:57:09;;;;;;;1.40;1.30;;;;;;;24.03;39.19;100853.97;4540961;28;20033;-62
2023/06/15 01:59:19;;;;;;;1.55;1.10;;;;;;;24.08;39.55;100865.19;4542749;28;20021;-61
2023/06/15 02:01:30;;;;;;;1.40;1.30;;;;;;;24.06;39.24;100861.84;4542966;28;20520;-61
2023/06/15 02:03:40;;;;;;;1.58;1.35;;;;;;;24.05;39.43;100860.19;4544975;28;20680;-62
2023/06/15 02:05:55;;;;;;;1.38;1.23;;;;;;;24.06;39.17;100861.00;4543901;28;20071;-61
2023/06/15 02:08:07;;;;;;;1.38;1.20;;;;;;;24.04;39.04;100858.53;4543388;28;20044;-61
2023/06/15 02:10:18;;;;;;;1.38;1.20;;;;;;;24.05;38.84;100853.59;4541922;28;20103;-61
2023/06/15 02:12:29;;;;;;;1.38;1.20;;;;;;;24.05;38.92;100860.19;4541108;28;20029;-61
2023/06/15 02:14:40;;;;;;;1.55;1.20;;;;;;;24.06;39.40;100867.63;4543803;28;20957;-61
2023/06/15 02:16:50;;;;;;;1.27;1.17;;;;;;;24.04;38.60;100863.47;4543179;28;20036;-62
2023/06/15 02:19:03;;;;;;;1.50;1.40;;;;;;;24.01;39.09;100855.56;4543001;28;20048;-62
2023/06/15 02:21:14;;;;;;;1.35;1.20;;;;;;;24.02;39.04;100860.13;4541710;28;20025;-62
2023/06/15 02:23:25;;;;;;;1.30;1.20;;;;;;;24.04;38.90;100861.41;4542378;27;20033;-61
2023/06/15 02:25:37;;;;;;;1.20;1.10;;;;;;;24.03;39.04;100861.78;4544322;28;21272;-61
2023/06/15 02:27:47;;;;;;;1.30;1.20;;;;;;;24.02;38.85;100855.22;4527733;28;20041;-62
2023/06/15 02:29:57;;;;;;;1.13;1.02;;;;;;;24.03;39.13;100856.88;4543851;28;20036;-61
2023/06/15 02:32:11;;;;;;;1.20;1.10;;;;;;;24.03;38.79;100873.31;4540096;28;20033;-62
2023/06/15 02:34:21;;;;;;;1.15;1.05;;;;;;;24.02;38.96;100860.97;4544062;28;20037;-61
2023/06/15 02:36:34;;;;;;;1.08;1.00;;;;;;;24.03;38.69;100873.31;4544058;28;20025;-62
2023/06/15 02:38:48;;;;;;;1.48;1.10;;;;;;;23.99;38.90;100866.66;4544107;28;20575;-62
2023/06/15 02:40:58;;;;;;;1.00;0.90;;;;;;;24.02;38.88;100872.50;4543300;28;20102;-62
2023/06/15 02:43:10;;;;;;;1.27;1.17;;;;;;;24.02;39.03;100860.13;4543419;28;20040;-61
2023/06/15 02:45:20;;;;;;;1.25;1.15;;;;;;;24.02;38.75;100863.88;4549546;28;20519;-61
2023/06/15 02:47:31;;;;;;;1.33;1.10;;;;;;;24.02;38.77;100872.50;4548566;28;20397;-61
2023/06/15 02:49:42;;;;;;;1.15;1.05;;;;;;;24.01;38.42;100872.88;4548954;28;20040;-61
2023/06/15 02:51:53;;;;;;;1.45;1.35;;;;;;;24.00;38.44;100874.09;4540407;28;20048;-62
2023/06/15 02:54:05;;;;;;;1.48;1.10;;;;;;;23.99;38.27;100867.47;4548537;28;20611;-61
2023/06/15 02:56:18;;;;;;;1.30;1.20;;;;;;;24.01;38.55;100870.81;4541566;28;20029;-61
2023/06/15 02:58:32;;;;;;;1.10;1.00;;;;;;;23.99;38.57;100864.59;4542250;28;20036;-61
2023/06/15 03:00:52;;;;;;;1.20;1.10;;;;;;;24.01;38.02;100872.88;4541884;28;20039;-61
2023/06/15 03:03:11;;;;;;;1.30;1.20;;;;;;;23.98;38.54;100865.81;4543414;28;20020;-62
2023/06/15 03:05:24;;;;;;;1.20;1.10;;;;;;;23.99;37.91;100870.38;4542067;28;20032;-61
2023/06/15 03:07:40;;;;;;;1.10;1.00;;;;;;;23.98;37.61;100868.72;4539361;28;20359;-62
2023/06/15 03:10:03;;;;;;;2.13;1.33;;;;;;;23.98;38.10;100877.38;4542042;28;20044;-61
2023/06/15 03:12:17;;;;;;;1.17;1.08;;;;;;;23.97;37.85;100877.75;4541003;28;20136;-62
2023/06/15 03:14:28;;;;;;;1.23;1.10;;;;;;;23.97;38.46;100875.72;4542599;28;20043;-61
2023/06/15 03:16:39;;;;;;;1.20;1.10;;;;;;;23.98;38.25;100880.25;4525705;28;20165;-61
2023/06/15 03:18:52;;;;;;;0.90;0.90;;;;;;;23.97;38.18;100880.63;4548953;28;20033;-61
2023/06/15 03:21:07;;;;;;;1.10;1.00;;;;;;;23.99;38.84;100884.78;4532400;28;20040;-61
2023/06/15 03:23:21;;;;;;;1.23;1.10;;;;;;;23.98;38.50;100883.13;4533474;28;20029;-61
2023/06/15 03:25:32;;;;;;;1.77;1.33;;;;;;;23.98;38.27;100885.16;4532677;28;20037;-62
2023/06/15 03:27:43;;;;;;;1.20;1.00;;;;;;;23.98;38.56;100886.00;4543279;28;20036;-61
2023/06/15 03:30:01;;;;;;;1.10;1.00;;;;;;;23.99;38.72;100896.31;4542937;28;20064;-61
2023/06/15 03:32:13;;;;;;;1.85;1.20;;;;;;;24.01;38.57;100893.06;4544846;28;20559;-61
2023/06/15 03:34:27;;;;;;;1.30;1.15;;;;;;;23.97;38.58;100887.25;4543617;28;20044;-61
2023/06/15 03:36:39;;;;;;;1.10;1.00;;;;;;;24.00;38.50;100897.16;4544049;28;20028;-61
2023/06/15 03:38:50;;;;;;;1.02;0.98;;;;;;;24.01;38.90;100893.06;4543041;28;20037;-61
2023/06/15 03:41:00;;;;;;;1.27;1.10;;;;;;;23.97;39.31;100890.13;4545218;28;20508;-61
2023/06/15 03:43:11;;;;;;;1.42;1.10;;;;;;;23.99;38.83;100887.66;4544817;28;20029;-61
2023/06/15 03:45:24;;;;;;;0.82;0.82;;;;;;;23.99;38.58;100899.19;4553219;28;20064;-61
2023/06/15 03:47:35;;;;;;;1.80;1.17;;;;;;;23.98;38.68;100893.81;4551897;28;20039;-61
2023/06/15 03:49:46;;;;;;;1.10;1.00;;;;;;;23.96;38.21;100882.63;4545008;28;20040;-61
2023/06/15 03:51:57;;;;;;;1.95;1.15;;;;;;;23.95;38.02;100883.88;4545709;28;20029;-61
2023/06/15 03:54:08;;;;;;;1.10;1.00;;;;;;;23.96;38.47;100885.53;4529790;28;20064;-61
2023/06/15 03:56:18;;;;;;;1.10;1.00;;;;;;;23.96;38.23;100888.41;4543041;28;20493;-61
2023/06/15 03:58:28;;;;;;;1.52;1.05;;;;;;;23.95;38.67;100878.09;4545622;28;20059;-61
2023/06/15 04:00:40;;;;;;;1.40;1.30;;;;;;;23.98;38.60;100894.66;4552456;28;20144;-61
2023/06/15 04:02:50;;;;;;;1.25;1.15;;;;;;;23.96;38.44;100894.19;4542561;28;20036;-61
2023/06/15 04:05:03;;;;;;;1.00;0.90;;;;;;;23.95;38.44;100889.63;4546243;28;20048;-61
2023/06/15 04:07:16;;;;;;;1.10;1.00;;;;;;;23.95;38.54;100892.53;4543113;28;20157;-61
2023/06/15 04:09:27;;;;;;;1.20;1.10;;;;;;;23.93;38.43;100882.59;4559788;28;20076;-62
2023/06/15 04:11:38;;;;;;;1.33;1.20;;;;;;;23.93;38.49;100885.47;4545847;28;20123;-61
2023/06/15 04:13:48;;;;;;;1.25;1.02;;;;;;;23.93;38.42;100886.28;4546381;28;20658;-61
2023/06/15 04:15:59;;;;;;;1.33;1.15;;;;;;;23.94;38.66;100893.75;4526849;28;20398;-61
2023/06/15 04:18:09;;;;;;;1.15;1.05;;;;;;;23.93;38.67;100885.47;4542755;28;20051;-61
2023/06/15 04:20:21;;;;;;;1.23;1.00;;;;;;;23.93;39.20;100889.19;4545260;28;20040;-61
2023/06/15 04:22:33;;;;;;;1.88;1.00;;;;;;;23.94;39.16;100892.91;4544351;28;20054;-61
2023/06/15 04:24:43;;;;;;;1.30;1.05;;;;;;;23.93;38.80;100892.06;4558463;28;20072;-61
2023/06/15 04:26:57;;;;;;;1.35;1.25;;;;;;;23.93;39.02;100894.94;4541441;28;20543;-61
2023/06/15 04:29:08;;;;;;;0.93;0.90;;;;;;;23.94;39.08;100887.97;4529356;28;20698;-61
2023/06/15 04:31:21;;;;;;;1.10;1.00;;;;;;;23.95;39.45;100891.69;4540862;28;20060;-61
2023/06/15 04:33:33;;;;;;;1.10;1.00;;;;;;;23.85;39.45;100875.84;4546297;28;20041;-61
2023/06/15 04:35:47;;;;;;;1.25;1.15;;;;;;;23.93;39.16;100897.81;4529724;28;20057;-61
2023/06/15 04:37:59;;;;;;;1.23;1.13;;;;;;;23.93;39.44;100900.72;4544376;28;20079;-61
2023/06/15 04:40:10;;;;;;;1.27;1.17;;;;;;;23.91;39.06;100891.63;4551832;28;20125;-61
2023/06/15 04:42:24;;;;;;;1.17;1.05;;;;;;;23.90;39.34;100904.38;4559722;28;20695;-62
2023/06/15 04:44:35;;;;;;;1.10;1.00;;;;;;;23.86;38.85;100897.72;4542986;28;20035;-61
2023/06/15 04:46:47;;;;;;;1.10;1.00;;;;;;;23.89;38.68;100899.81;4545981;28;20059;-61
2023/06/15 04:48:58;;;;;;;1.58;1.13;;;;;;;23.89;39.31;100907.63;4541724;28;20120;-61
2023/06/15 04:51:08;;;;;;;1.17;1.08;;;;;;;23.90;39.59;100904.38;4548741;28;20040;-61
2023/06/15 04:53:19;;;;;;;1.08;1.00;;;;;;;23.88;39.70;100901.03;4544053;28;20512;-61
2023/06/15 04:55:30;;;;;;;1.00;1.00;;;;;;;23.89;39.82;100902.72;4541157;28;20624;-61
2023/06/15 04:57:40;;;;;;;1.30;1.00;;;;;;;23.88;39.95;100903.91;4545113;28;20040;-61
2023/06/15 04:59:52;;;;;;;0.93;0.90;;;;;;;23.91;39.81;100903.16;4542150;28;20115;-61
2023/06/15 05:02:02;;;;;;;1.30;1.20;;;;;;;23.88;39.69;100909.66;4526986;28;20033;-62
2023/06/15 05:04:15;;;;;;;1.33;1.23;;;;;;;23.90;38.63;100909.28;4544880;28;20024;-61
2023/06/15 05:06:26;;;;;;;1.70;1.50;;;;;;;23.90;38.55;100912.16;4544980;28;20580;-61
2023/06/15 05:08:37;;;;;;;1.50;1.40;;;;;;;23.88;38.58;100912.56;4542699;28;20410;-61
2023/06/15 05:10:49;;;;;;;1.20;1.10;;;;;;;23.84;39.18;100902.16;4546003;28;20037;-61
2023/06/15 05:13:03;;;;;;;1.20;1.10;;;;;;;23.84;39.44;100905.06;4543475;28;20029;-61
2023/06/15 05:15:14;;;;;;;1.20;1.10;;;;;;;23.85;39.95;100907.56;4545646;28;20032;-61
2023/06/15 05:17:25;;;;;;;1.65;1.13;;;;;;;23.86;40.50;100909.25;4544203;28;20124;-61
2023/06/15 05:19:35;;;;;;;2.05;1.30;;;;;;;23.87;40.49;100905.13;4545129;28;20036;-61
2023/06/15 05:21:49;;;;;;;1.33;1.23;;;;;;;23.87;40.26;100910.91;4543951;28;20561;-61
2023/06/15 05:24:00;;;;;;;1.30;1.20;;;;;;;23.87;40.06;100910.06;4543123;28;20037;-61
2023/06/15 05:26:11;;;;;;;1.00;0.90;;;;;;;23.83;40.41;100901.34;4542698;28;20039;-61
2023/06/15 05:28:21;;;;;;;1.17;1.08;;;;;;;23.86;40.34;100909.25;4544971;28;20099;-61
2023/06/15 05:30:32;;;;;;;1.20;1.10;;;;;;;23.86;40.32;100912.13;4543608;28;20121;-61
2023/06/15 05:32:43;;;;;;;1.20;1.10;;;;;;;23.86;40.44;100909.25;4544140;28;20028;-61
2023/06/15 05:34:55;;;;;;;1.30;1.20;;;;;;;23.85;40.62;100913.31;4551010;28;20040;-61
2023/06/15 05:37:09;;;;;;;1.00;1.00;;;;;;;23.83;40.76;100915.78;4533395;28;20037;-62
2023/06/15 05:39:22;;;;;;;1.50;1.40;;;;;;;23.84;40.42;100910.81;4558120;28;20585;-61
2023/06/15 05:41:33;;;;;;;1.30;1.20;;;;;;;23.88;40.39;100914.63;4526631;28;20056;-61
2023/06/15 05:43:45;;;;;;;1.60;1.30;;;;;;;23.84;40.60;100916.59;4533747;28;20881;-61
2023/06/15 05:45:55;;;;;;;1.38;1.27;;;;;;;23.86;40.85;100926.53;4544617;28;20060;-61
2023/06/15 05:48:07;;;;;;;1.58;1.30;;;;;;;23.86;40.91;100919.94;4544210;28;20067;-61
2023/06/15 05:50:17;;;;;;;1.35;1.25;;;;;;;23.80;41.11;100913.63;4541035;28;20029;-61
2023/06/15 05:52:28;;;;;;;1.63;1.33;;;;;;;23.82;40.64;100925.63;4538757;28;20107;-61
2023/06/15 05:54:38;;;;;;;2.20;1.40;;;;;;;23.83;40.32;100920.69;4550402;28;20049;-61
2023/06/15 05:56:49;;;;;;;1.50;1.35;;;;;;;23.80;40.69;100916.50;4539109;28;20111;-61
2023/06/15 05:58:59;;;;;;;1.50;1.40;;;;;;;23.85;41.07;100926.91;4541931;27;20128;-61
2023/06/15 06:01:10;;;;;;;1.48;1.38;;;;;;;23.82;41.11;100922.72;4543036;28;20041;-61
2023/06/15 06:03:21;;;;;;;1.30;1.20;;;;;;;23.80;41.18;100928.03;4542625;28;20025;-64
2023/06/15 06:05:33;;;;;;;1.58;1.48;;;;;;;23.82;40.95;100925.63;4544297;28;20036;-62
2023/06/15 06:07:46;;;;;;;1.27;1.10;;;;;;;23.82;41.09;100927.69;4549223;28;20591;-61
2023/06/15 06:09:57;;;;;;;1.40;1.30;;;;;;;23.82;41.09;100927.69;4541798;28;20120;-64
2023/06/15 06:12:09;;;;;;;1.73;1.17;;;;;;;23.81;41.38;100929.72;4541288;28;20037;-61
2023/06/15 06:14:19;;;;;;;1.33;1.23;;;;;;;23.78;41.80;100930.50;4541733;28;20834;-62
2023/06/15 06:16:29;;;;;;;1.58;1.30;;;;;;;23.80;41.57;100933.81;4540339;28;20047;-64
2023/06/15 06:18:40;;;;;;;1.40;1.30;;;;;;;23.78;41.83;100936.25;4541904;28;20107;-63
2023/06/15 06:20:50;;;;;;;1.20;1.10;;;;;;;23.78;41.99;100942.03;4544300;28;20192;-63
2023/06/15 06:23:03;;;;;;;1.55;1.33;;;;;;;23.74;42.03;100932.44;4543016;28;20040;-63
2023/06/15 06:25:14;;;;;;;1.83;1.48;;;;;;;23.65;42.00;100931.84;4549163;28;20100;-63
2023/06/15 06:27:25;;;;;;;1.40;1.25;;;;;;;23.69;42.01;100944.28;4542492;28;20477;-63
2023/06/15 06:29:35;;;;;;;1.40;1.30;;;;;;;23.68;41.53;100942.63;4541209;28;20919;-63
2023/06/15 06:31:46;;;;;;;1.40;1.30;;;;;;;23.63;42.13;100940.03;4541107;28;20023;-63
2023/06/15 06:33:56;;;;;;;1.95;1.23;;;;;;;23.59;41.93;100942.84;4542129;28;20051;-64
2023/06/15 06:36:08;;;;;;;1.67;1.58;;;;;;;23.59;42.36;100944.91;4540682;28;20037;-63
2023/06/15 06:38:18;;;;;;;2.05;1.30;;;;;;;23.57;41.85;100950.22;4542152;28;20087;-64
2023/06/15 06:40:29;;;;;;;1.45;1.33;;;;;;;23.56;41.86;100951.44;4540950;28;20029;-61
2023/06/15 06:42:40;;;;;;;1.40;1.30;;;;;;;23.59;42.28;100959.31;4540529;28;20041;-61
2023/06/15 06:44:50;;;;;;;1.60;1.50;;;;;;;23.59;41.84;100944.91;4542932;28;20033;-61
2023/06/15 06:47:01;;;;;;;1.50;1.27;;;;;;;23.53;41.72;100934.91;4543441;28;20045;-61
2023/06/15 06:49:12;;;;;;;1.45;1.35;;;;;;;23.62;42.39;100944.16;4544604;28;20117;-61
2023/06/15 06:51:22;;;;;;;1.45;1.35;;;;;;;23.62;42.38;100947.03;4548453;28;20614;-62
2023/06/15 06:53:33;;;;;;;2.05;1.20;;;;;;;23.64;42.05;100947.50;4540148;28;20088;-61
2023/06/15 06:55:44;;;;;;;1.60;1.50;;;;;;;23.63;41.48;100945.81;4540727;28;20036;-61
2023/06/15 06:58:00;;;;;;;1.55;1.38;;;;;;;23.64;41.86;100942.53;4541467;28;20028;-61
2023/06/15 07:00:11;;;;;;;1.48;1.35;;;;;;;23.63;41.69;100945.81;4539698;28;20076;-61
2023/06/15 07:02:22;;;;;;;1.40;1.20;;;;;;;23.63;42.89;100952.41;4542839;28;20557;-61
2023/06/15 07:04:33;;;;;;;1.70;1.30;;;;;;;23.65;42.62;100954.91;4541446;28;20547;-62
2023/06/15 07:06:43;;;;;;;1.40;1.30;;;;;;;23.66;42.32;100950.81;4542485;28;20109;-64
2023/06/15 07:08:54;;;;;;;1.30;1.20;;;;;;;23.65;42.75;100946.28;4541697;28;20384;-64
2023/06/15 07:11:04;;;;;;;1.60;1.23;;;;;;;23.64;43.08;100959.03;4549750;28;20345;-65
2023/06/15 07:13:15;;;;;;;1.88;1.40;;;;;;;23.65;42.60;100946.28;4540244;28;20047;-65
2023/06/15 07:15:27;;;;;;;1.20;1.10;;;;;;;23.61;42.89;100945.34;4542684;28;20076;-65
2023/06/15 07:17:37;;;;;;;1.67;1.58;;;;;;;23.65;42.39;100960.69;4556309;28;20032;-65
2023/06/15 07:19:48;;;;;;;1.45;1.35;;;;;;;23.61;41.51;100954.00;4541252;28;20037;-64
2023/06/15 07:21:58;;;;;;;1.20;1.10;;;;;;;23.66;41.87;100950.00;4531565;28;20044;-64
2023/06/15 07:24:09;;;;;;;1.42;1.33;;;;;;;23.66;41.70;100950.00;4522591;28;20595;-65
2023/06/15 07:26:20;;;;;;;1.83;1.33;;;;;;;23.63;42.66;100954.44;4526267;28;20581;-65
2023/06/15 07:28:30;;;;;;;1.58;1.48;;;;;;;23.64;42.33;100942.53;4541898;28;20326;-65
2023/06/15 07:30:41;;;;;;;1.65;1.20;;;;;;;23.66;42.47;100950.81;4540224;28;20043;-65
2023/06/15 07:32:51;;;;;;;1.38;1.20;;;;;;;23.67;42.79;100963.19;4541960;28;20036;-64
2023/06/15 07:35:02;;;;;;;1.42;1.30;;;;;;;23.66;42.67;100953.69;4542089;28;20573;-65
2023/06/15 07:37:13;;;;;;;1.60;1.30;;;;;;;23.66;42.11;100947.94;4538842;28;20123;-64
2023/06/15 07:39:23;;;;;;;1.77;1.40;;;;;;;23.66;42.19;100959.44;4540048;28;20072;-64
2023/06/15 07:41:34;;;;;;;1.58;1.20;;;;;;;23.63;42.64;100951.56;4539810;28;20520;-64
2023/06/15 07:43:44;;;;;;;1.30;1.20;;;;;;;23.66;42.36;100950.00;4542290;28;20048;-65
2023/06/15 07:45:55;;;;;;;1.30;1.20;;;;;;;23.61;41.95;100954.84;4540317;28;20127;-65
2023/06/15 07:48:05;;;;;;;1.40;1.30;;;;;;;23.62;42.76;100955.69;4541013;28;20110;-65
2023/06/15 07:50:15;;;;;;;1.60;1.20;;;;;;;23.66;42.21;100959.44;4540975;28;20033;-64
2023/06/15 07:52:26;;;;;;;1.40;1.30;;;;;;;23.67;42.94;100958.25;4538556;28;20049;-65
2023/06/15 07:54:36;;;;;;;1.50;1.40;;;;;;;23.66;43.01;100965.22;4541433;28;20052;-65
2023/06/15 07:56:47;;;;;;;1.88;1.60;;;;;;;23.63;43.30;100949.53;4541579;28;20027;-65
2023/06/15 07:58:57;;;;;;;1.50;1.40;;;;;;;23.64;42.36;100956.94;4539754;28;20028;-65
2023/06/15 08:01:08;;;;;;;1.40;1.30;;;;;;;23.67;41.37;100964.03;4540815;28;20029;-65
2023/06/15 08:03:19;;;;;;;1.75;1.40;;;;;;;23.67;41.20;100957.41;4542227;28;20496;-66
2023/06/15 08:05:30;;;;;;;1.70;1.40;;;;;;;23.66;40.87;100952.88;4554905;28;20058;-63
2023/06/15 08:07:40;;;;;;;2.17;1.20;;;;;;;23.63;41.18;100948.69;4540212;28;20037;-63
2023/06/15 08:09:51;;;;;;;1.67;1.30;;;;;;;23.67;41.11;100950.44;4539777;28;20119;-63
2023/06/15 08:12:01;;;;;;;1.40;1.30;;;;;;;23.67;41.02;100951.66;4539974;28;20021;-63
2023/06/15 08:14:12;;;;;;;1.50;1.40;;;;;;;23.67;41.07;100949.63;4542788;28;20041;-63
2023/06/15 08:16:23;;;;;;;1.27;1.17;;;;;;;23.68;41.00;100948.38;4543420;28;20144;-63
2023/06/15 08:18:33;;;;;;;1.65;1.40;;;;;;;23.67;39.88;100947.53;4541251;28;20486;-64
2023/06/15 08:20:44;;;;;;;1.40;1.27;;;;;;;23.67;39.97;100947.53;4542802;28;20059;-64
2023/06/15 08:22:54;;;;;;;1.50;1.30;;;;;;;23.67;40.35;100940.97;4542973;28;20118;-64
2023/06/15 08:25:06;;;;;;;1.75;1.40;;;;;;;23.68;41.12;100942.63;4545489;28;20048;-64
2023/06/15 08:27:16;;;;;;;1.48;1.38;;;;;;;23.67;40.65;100941.78;4544654;28;20045;-64
2023/06/15 08:29:27;;;;;;;1.70;1.50;;;;;;;23.68;41.24;100936.84;4546471;28;20028;-64
2023/06/15 08:31:39;;;;;;;1.50;1.40;;;;;;;23.69;41.18;100931.94;4540461;28;20028;-65
2023/06/15 08:33:49;;;;;;;1.48;1.20;;;;;;;23.69;41.68;100935.63;4546216;28;20041;-64
2023/06/15 08:36:00;;;;;;;1.85;1.50;;;;;;;23.66;40.87;100930.63;4544533;28;20063;-64
2023/06/15 08:38:10;;;;;;;2.33;1.38;;;;;;;23.64;40.80;100921.56;4541771;28;20037;-64
2023/06/15 08:40:21;;;;;;;1.50;1.30;;;;;;;23.68;40.17;100928.22;4544422;28;20075;-64
2023/06/15 08:42:33;;;;;;;1.60;1.48;;;;;;;23.67;40.89;100932.31;4543997;28;20086;-64
2023/06/15 08:44:46;;;;;;;1.77;1.40;;;;;;;23.64;40.66;100924.44;4542328;28;20028;-64
2023/06/15 08:46:58;;;;;;;1.55;1.30;;;;;;;23.70;40.47;100940.22;4542001;28;20044;-64
2023/06/15 08:49:09;;;;;;;1.70;1.40;;;;;;;23.69;40.79;100929.88;4543872;28;20041;-64
2023/06/15 08:51:22;;;;;;;1.40;1.30;;;;;;;23.70;41.38;100928.69;4544100;28;20489;-64
2023/06/15 08:53:34;;;;;;;1.67;1.30;;;;;;;23.63;40.77;100917.00;4542639;28;20044;-64
2023/06/15 08:55:46;;;;;;;1.92;1.42;;;;;;;23.69;40.61;100924.09;4542720;28;20033;-64
2023/06/15 08:57:57;;;;;;;1.65;1.30;;;;;;;23.70;39.33;100927.84;4544686;28;20040;-64
2023/06/15 09:00:09;;;;;;;1.40;1.30;;;;;;;23.70;39.75;100928.69;4545614;28;20068;-65
2023/06/15 09:02:20;;;;;;;1.48;1.33;;;;;;;23.66;40.24;100922.00;4542168;28;20040;-65
2023/06/15 09:04:31;;;;;;;1.65;1.33;;;;;;;23.71;40.42;100923.72;4541305;28;20646;-64
2023/06/15 09:06:42;;;;;;;1.80;1.40;;;;;;;23.68;40.55;100922.44;4541868;28;20051;-64
2023/06/15 09:08:52;;;;;;;1.48;1.33;;;;;;;23.70;40.67;100920.03;4543217;28;20059;-64
2023/06/15 09:11:08;;;;;;;2.30;1.40;;;;;;;23.70;40.29;100925.78;4550540;28;20094;-64
2023/06/15 09:13:18;;;;;;;1.60;1.30;;;;;;;23.71;39.60;100924.56;4541540;28;20040;-65
2023/06/15 09:15:30;;;;;;;1.60;1.30;;;;;;;23.72;39.52;100932.03;4543197;28;20048;-66
2023/06/15 09:17:41;;;;;;;1.20;1.10;;;;;;;23.70;38.27;100922.91;4541774;28;20199;-64
2023/06/15 09:19:51;;;;;;;1.38;1.10;;;;;;;23.72;42.35;100923.38;4543102;28;20021;-64
2023/06/15 09:22:05;;;;;;;0.80;0.80;;;;;;;23.96;43.69;100919.31;4544068;28;20090;-65
2023/06/15 09:24:17;;;;;;;1.00;1.00;;;;;;;24.03;43.46;100925.22;4540829;28;20036;-65
2023/06/15 09:26:28;;;;;;;1.17;1.08;;;;;;;24.07;43.42;100921.19;4556442;27;20025;-64
2023/06/15 09:28:45;;;;;;;0.80;0.80;;;;;;;24.12;43.67;100923.75;4543076;28;20032;-66
2023/06/15 09:30:56;;;;;;;0.88;0.88;;;;;;;24.13;43.33;100913.91;4526980;28;20098;-66
2023/06/15 09:33:17;;;;;;;0.70;0.70;;;;;;;24.18;43.26;100915.63;4543359;28;20095;-64
2023/06/15 09:35:27;;;;;;;0.80;0.80;;;;;;;24.17;43.02;100911.91;4541836;28;20116;-65
2023/06/15 09:37:38;;;;;;;0.93;0.80;;;;;;;24.18;43.40;100907.81;4542408;28;20035;-65
2023/06/15 09:39:50;;;;;;;0.80;0.80;;;;;;;24.20;43.39;100908.25;4542927;28;20032;-66
2023/06/15 09:42:01;;;;;;;1.00;0.90;;;;;;;24.19;43.14;100905.75;4552315;28;20102;-65
2023/06/15 09:44:13;;;;;;;0.90;0.90;;;;;;;24.16;43.14;100900.75;4542854;28;20085;-65
2023/06/15 09:46:28;;;;;;;0.77;0.77;;;;;;;24.20;43.12;100902.50;4542205;28;20037;-65
2023/06/15 09:48:40;;;;;;;0.85;0.85;;;;;;;24.24;43.16;100909.16;4542530;28;20083;-65
2023/06/15 09:51:00;;;;;;;0.80;0.80;;;;;;;24.26;43.26;100900.94;4540146;28;20527;-65
2023/06/15 09:53:12;;;;;;;1.40;0.88;;;;;;;24.25;43.20;100899.28;4542294;28;20146;-65
2023/06/15 09:55:23;;;;;;;0.80;0.80;;;;;;;24.27;43.35;100902.63;4541907;28;20045;-67
2023/06/15 09:57:35;;;;;;;0.75;0.75;;;;;;;24.29;43.10;100914.59;4541251;28;20176;-64
2023/06/15 09:59:46;;;;;;;0.70;0.70;;;;;;;24.29;43.16;100899.34;4542890;28;20784;-64
2023/06/15 10:02:00;;;;;;;0.82;0.82;;;;;;;24.29;43.18;100908.00;4542271;28;20040;-65
2023/06/15 10:04:10;;;;;;;0.80;0.80;;;;;;;24.30;43.35;100904.75;4541137;28;20029;-64
2023/06/15 10:06:25;;;;;;;0.88;0.88;;;;;;;24.32;43.02;100910.13;4542689;28;20036;-65
2023/06/15 10:08:39;;;;;;;0.60;0.60;;;;;;;24.32;43.17;100910.97;4541880;28;20106;-65
2023/06/15 10:10:51;;;;;;;0.60;0.60;;;;;;;24.28;43.53;100901.41;4541724;28;20579;-64